Time;durP1;ratioP1;P1;durP2;ratioP2;P2;SDS_P1;SDS_P2;PMS_P1;PMS_P2;Temp;Humidity;BMP_temperature;BMP_pressure;BME280_temperature;BME280_humidity;BME280_pressure;Samples;Min_cycle;Max_cycle;Signal;HPM_P1;HPM_P2
2023/01/02 00:00:59;;;;;;;14.57;5.97;;;9.20;99.90;;;;;;5046333;28;20199;-77
2023/01/02 00:03:26;;;;;;;11.07;6.07;;;9.20;99.90;;;;;;5062394;28;20209;-78
2023/01/02 00:05:52;;;;;;;12.63;6.60;;;9.20;99.90;;;;;;5074097;28;20600;-77
2023/01/02 00:08:18;;;;;;;13.57;6.30;;;9.20;99.90;;;;;;5064522;28;20277;-77
2023/01/02 00:10:45;;;;;;;11.40;6.13;;;9.10;99.90;;;;;;5056557;28;20612;-77
2023/01/02 00:13:11;;;;;;;10.20;5.60;;;9.20;99.90;;;;;;5046072;28;20193;-77
2023/01/02 00:15:39;;;;;;;14.00;7.07;;;9.10;99.90;;;;;;5061080;28;20191;-77
2023/01/02 00:18:05;;;;;;;12.37;6.77;;;9.10;99.90;;;;;;5081068;28;20306;-77
2023/01/02 00:20:33;;;;;;;20.70;6.03;;;9.10;99.90;;;;;;5057751;28;20819;-77
2023/01/02 00:22:59;;;;;;;15.93;6.23;;;9.10;99.90;;;;;;5055675;28;20194;-77
2023/01/02 00:25:25;;;;;;;15.90;6.60;;;9.10;99.90;;;;;;5042999;28;20211;-77
2023/01/02 00:27:51;;;;;;;14.10;6.10;;;9.10;99.90;;;;;;5053187;28;20209;-77
2023/01/02 00:30:18;;;;;;;11.00;6.03;;;9.10;99.90;;;;;;5076802;28;20224;-77
2023/01/02 00:32:44;;;;;;;20.60;6.80;;;9.10;99.90;;;;;;5057373;28;20182;-77
2023/01/02 00:35:14;;;;;;;15.40;6.07;;;9.10;99.90;;;;;;5059327;28;20179;-78
2023/01/02 00:37:40;;;;;;;16.10;6.40;;;9.10;99.90;;;;;;5049364;28;20577;-77
2023/01/02 00:40:12;;;;;;;18.37;6.17;;;9.20;99.90;;;;;;5069558;28;20210;-77
2023/01/02 00:42:42;;;;;;;16.80;6.27;;;9.20;99.90;;;;;;5085648;28;20190;-77
2023/01/02 00:45:10;;;;;;;11.73;6.60;;;9.20;99.90;;;;;;5050832;28;20230;-77
2023/01/02 00:47:37;;;;;;;12.80;6.70;;;9.20;99.90;;;;;;5059011;28;20182;-77
2023/01/02 00:50:04;;;;;;;17.40;6.07;;;9.20;99.90;;;;;;5050376;28;20189;-77
2023/01/02 00:52:31;;;;;;;11.90;6.70;;;9.20;99.90;;;;;;5065796;28;20236;-77
2023/01/02 00:54:58;;;;;;;21.23;7.47;;;9.20;99.90;;;;;;5067767;28;20199;-77
2023/01/02 00:57:24;;;;;;;13.80;6.63;;;9.20;99.90;;;;;;5050638;28;20182;-78
2023/01/02 00:59:51;;;;;;;13.33;6.70;;;9.10;99.90;;;;;;5079922;28;20215;-77
2023/01/02 01:02:17;;;;;;;15.77;6.83;;;9.10;99.90;;;;;;5069549;28;20236;-77
2023/01/02 01:04:43;;;;;;;10.40;6.33;;;9.20;99.90;;;;;;5053590;28;20221;-77
2023/01/02 01:07:09;;;;;;;23.27;6.40;;;9.10;99.90;;;;;;5072124;28;20184;-77
2023/01/02 01:09:36;;;;;;;17.50;6.57;;;9.10;99.90;;;;;;5065211;28;20191;-77
2023/01/02 01:12:02;;;;;;;10.53;6.43;;;9.00;99.90;;;;;;5061370;28;20202;-77
2023/01/02 01:14:28;;;;;;;16.30;6.70;;;9.10;99.90;;;;;;5068620;28;20221;-77
2023/01/02 01:16:55;;;;;;;9.73;5.60;;;9.10;99.90;;;;;;5045765;28;20191;-77
2023/01/02 01:19:21;;;;;;;9.57;6.10;;;9.10;99.90;;;;;;5049715;28;20354;-77
2023/01/02 01:21:47;;;;;;;15.40;6.43;;;9.00;99.90;;;;;;5057355;28;20192;-78
2023/01/02 01:24:15;;;;;;;14.27;6.60;;;9.00;99.90;;;;;;5061190;28;20960;-78
2023/01/02 01:26:41;;;;;;;16.73;6.33;;;9.10;99.90;;;;;;5049274;28;20188;-77
2023/01/02 01:29:07;;;;;;;12.37;6.00;;;9.10;99.90;;;;;;5047027;28;20325;-77
2023/01/02 01:31:34;;;;;;;16.63;6.13;;;9.10;99.90;;;;;;5080621;28;20183;-77
2023/01/02 01:34:01;;;;;;;13.10;6.13;;;9.10;99.90;;;;;;5058145;28;20256;-77
2023/01/02 01:36:27;;;;;;;12.80;5.83;;;9.10;99.90;;;;;;5059079;28;20209;-78
2023/01/02 01:38:53;;;;;;;10.87;5.57;;;9.10;99.90;;;;;;5066063;28;20215;-78
2023/01/02 01:41:24;;;;;;;11.93;5.40;;;9.10;99.90;;;;;;5049264;28;20820;-77
2023/01/02 01:43:57;;;;;;;12.20;5.73;;;9.00;99.90;;;;;;5073945;28;20205;-77
2023/01/02 01:46:42;;;;;;;15.67;5.10;;;9.00;99.90;;;;;;5056458;28;20195;-77
2023/01/02 01:49:11;;;;;;;10.27;5.80;;;9.00;99.90;;;;;;5069337;28;20187;-77
2023/01/02 01:52:11;;;;;;;14.50;5.40;;;9.10;99.90;;;;;;5041216;28;20629;-77
2023/01/02 01:55:10;;;;;;;12.53;5.57;;;9.10;99.90;;;;;;5065016;28;20203;-77
2023/01/02 01:57:52;;;;;;;10.37;5.40;;;9.10;99.90;;;;;;5049392;28;20213;-77
2023/01/02 02:00:19;;;;;;;9.77;5.53;;;9.10;99.90;;;;;;5062954;28;20198;-77
2023/01/02 02:02:51;;;;;;;14.63;5.70;;;9.10;99.90;;;;;;5078881;28;20255;-77
2023/01/02 02:05:22;;;;;;;12.20;5.20;;;9.10;99.90;;;;;;5058043;28;20188;-77
2023/01/02 02:07:58;;;;;;;12.57;5.57;;;9.00;99.90;;;;;;5089429;28;20186;-77
2023/01/02 02:10:24;;;;;;;11.83;5.50;;;9.00;99.90;;;;;;5076951;28;20186;-77
2023/01/02 02:12:51;;;;;;;15.43;5.90;;;8.90;99.90;;;;;;5071334;28;20274;-77
2023/01/02 02:15:29;;;;;;;17.53;5.97;;;8.90;99.90;;;;;;5074306;28;20199;-77
2023/01/02 02:18:18;;;;;;;16.90;5.57;;;9.00;99.90;;;;;;5052674;28;20384;-77
2023/01/02 02:21:17;;;;;;;14.73;5.17;;;9.00;99.90;;;;;;5085049;28;20607;-77
2023/01/02 02:24:00;;;;;;;16.73;5.50;;;9.00;99.90;;;;;;5065336;28;20201;-78
2023/01/02 02:27:10;;;;;;;11.33;5.17;;;9.00;99.90;;;;;;5084967;28;20186;-77
2023/01/02 02:30:17;;;;;;;13.23;5.50;;;9.00;99.90;;;;;;5070927;28;20285;-76
2023/01/02 02:33:21;;;;;;;12.10;5.60;;;9.00;99.90;;;;;;5093957;28;20191;-77
2023/01/02 02:36:15;;;;;;;11.93;5.87;;;8.90;99.90;;;;;;5068111;28;20183;-77
2023/01/02 02:39:12;;;;;;;16.20;5.67;;;8.90;99.90;;;;;;5067021;28;20219;-76
2023/01/02 02:41:56;;;;;;;13.40;5.60;;;8.90;99.90;;;;;;5065338;28;20191;-76
2023/01/02 02:44:37;;;;;;;10.57;5.87;;;8.90;99.90;;;;;;5064327;28;20582;-76
2023/01/02 02:47:11;;;;;;;12.73;6.03;;;8.80;99.90;;;;;;5064695;28;20249;-76
2023/01/02 02:50:09;;;;;;;12.97;5.90;;;8.80;99.90;;;;;;5063124;28;20219;-76
2023/01/02 02:53:04;;;;;;;10.20;5.60;;;8.80;99.90;;;;;;5066594;28;20190;-76
2023/01/02 02:56:04;;;;;;;14.33;5.97;;;8.80;99.90;;;;;;5053966;28;20191;-76
2023/01/02 02:58:34;;;;;;;8.03;4.63;;;8.80;99.90;;;;;;5063942;28;20652;-76
2023/01/02 03:01:15;;;;;;;12.30;5.23;;;8.80;99.90;;;;;;5072391;28;20614;-76
2023/01/02 03:03:42;;;;;;;10.67;4.80;;;8.70;99.90;;;;;;5064445;28;20190;-76
2023/01/02 03:06:17;;;;;;;13.17;5.53;;;8.60;99.90;;;;;;5057318;28;20642;-76
2023/01/02 03:09:09;;;;;;;10.87;5.37;;;8.60;99.90;;;;;;5070893;28;20194;-76
2023/01/02 03:12:09;;;;;;;15.50;5.70;;;8.60;99.90;;;;;;5057977;28;20275;-76
2023/01/02 03:15:20;;;;;;;12.67;5.17;;;8.60;99.90;;;;;;5047120;28;20278;-76
2023/01/02 03:18:04;;;;;;;10.53;5.07;;;8.60;99.90;;;;;;5053991;28;20250;-76
2023/01/02 03:20:40;;;;;;;11.00;6.37;;;8.50;99.90;;;;;;5061530;28;20205;-76
2023/01/02 03:23:19;;;;;;;12.93;5.90;;;8.60;99.90;;;;;;5067206;28;20233;-76
2023/01/02 03:25:47;;;;;;;10.37;5.37;;;8.60;99.90;;;;;;5070058;28;20195;-76
2023/01/02 03:28:18;;;;;;;11.63;5.90;;;8.50;99.90;;;;;;5080095;28;20591;-76
2023/01/02 03:30:50;;;;;;;9.20;5.53;;;8.50;99.90;;;;;;5058870;28;20277;-76
2023/01/02 03:33:24;;;;;;;12.70;5.73;;;8.60;99.90;;;;;;5076580;28;20192;-76
2023/01/02 03:36:21;;;;;;;13.47;5.77;;;8.60;99.90;;;;;;5054820;28;20190;-76
2023/01/02 03:39:07;;;;;;;18.27;5.90;;;8.60;99.90;;;;;;5071808;28;20218;-76
2023/01/02 03:41:47;;;;;;;13.87;6.10;;;8.60;99.90;;;;;;5059240;28;20191;-76
2023/01/02 03:44:16;;;;;;;12.67;6.13;;;8.60;99.90;;;;;;5076511;28;20220;-76
2023/01/02 03:47:25;;;;;;;14.93;6.00;;;8.60;99.90;;;;;;5067850;28;20194;-76
2023/01/02 03:50:00;;;;;;;12.03;5.93;;;8.70;99.90;;;;;;5093169;28;20190;-76
2023/01/02 03:52:26;;;;;;;10.40;5.37;;;8.70;99.90;;;;;;5057299;28;20194;-76
2023/01/02 03:54:56;;;;;;;10.43;5.40;;;8.70;99.90;;;;;;5065688;28;20187;-76
2023/01/02 03:57:35;;;;;;;16.63;5.70;;;8.70;99.90;;;;;;5073496;28;20236;-76
2023/01/02 04:00:14;;;;;;;18.37;6.03;;;8.60;99.90;;;;;;5051318;28;20236;-76
2023/01/02 04:03:02;;;;;;;11.17;5.93;;;8.60;99.90;;;;;;5066856;28;20296;-76
2023/01/02 04:05:44;;;;;;;13.30;5.57;;;8.60;99.90;;;;;;5055421;28;20466;-76
2023/01/02 04:08:32;;;;;;;9.30;5.80;;;8.50;99.90;;;;;;5050086;28;20692;-76
2023/01/02 04:11:03;;;;;;;12.57;5.53;;;8.50;99.90;;;;;;5042157;28;20179;-76
2023/01/02 04:13:40;;;;;;;18.10;5.50;;;8.50;99.90;;;;;;5061154;28;20175;-76
2023/01/02 04:16:14;;;;;;;10.83;5.40;;;8.50;99.90;;;;;;5065531;28;20217;-76
2023/01/02 04:18:50;;;;;;;12.87;5.03;;;8.50;99.90;;;;;;5068158;28;20218;-76
2023/01/02 04:21:25;;;;;;;17.40;5.33;;;8.50;99.90;;;;;;5073470;28;20274;-76
2023/01/02 04:24:14;;;;;;;8.87;4.30;;;8.40;99.90;;;;;;5088142;28;20677;-76
2023/01/02 04:27:12;;;;;;;18.80;4.63;;;8.40;99.90;;;;;;5062111;28;20274;-76
2023/01/02 04:29:39;;;;;;;15.07;5.10;;;8.50;99.90;;;;;;5058592;28;20183;-76
2023/01/02 04:32:37;;;;;;;20.90;5.07;;;8.50;99.90;;;;;;5061779;28;20270;-76
2023/01/02 04:35:13;;;;;;;15.20;5.27;;;8.50;99.90;;;;;;5072214;28;21912;-76
2023/01/02 04:37:42;;;;;;;11.57;5.07;;;8.50;99.90;;;;;;5075936;28;20195;-76
2023/01/02 04:40:28;;;;;;;11.47;4.23;;;8.50;99.90;;;;;;5071035;28;20226;-76
2023/01/02 04:42:54;;;;;;;14.77;4.90;;;8.50;99.90;;;;;;5057529;28;20190;-76
2023/01/02 04:45:21;;;;;;;14.33;5.70;;;8.50;99.90;;;;;;5066708;28;20649;-76
2023/01/02 04:47:49;;;;;;;12.17;4.93;;;8.50;99.90;;;;;;5061686;28;20187;-75
2023/01/02 04:50:16;;;;;;;14.17;5.20;;;8.60;99.90;;;;;;5081523;28;20297;-76
2023/01/02 04:52:42;;;;;;;12.93;5.40;;;8.60;99.90;;;;;;5086168;28;20606;-76
2023/01/02 04:55:09;;;;;;;11.10;5.13;;;8.60;99.90;;;;;;5069931;28;20647;-76
2023/01/02 04:57:37;;;;;;;16.83;5.40;;;8.60;99.90;;;;;;5037927;28;20195;-76
2023/01/02 05:00:06;;;;;;;13.40;5.57;;;8.60;99.90;;;;;;5031714;28;20199;-76
2023/01/02 05:02:37;;;;;;;14.90;5.63;;;8.60;99.90;;;;;;5086371;28;20849;-76
2023/01/02 05:05:06;;;;;;;11.00;5.50;;;8.60;99.90;;;;;;5064841;28;20682;-76
2023/01/02 05:07:35;;;;;;;11.97;5.20;;;8.60;99.90;;;;;;5047529;28;20179;-76
2023/01/02 05:10:01;;;;;;;11.93;5.07;;;8.60;99.90;;;;;;5068809;28;20295;-76
2023/01/02 05:12:27;;;;;;;13.20;5.80;;;8.50;99.90;;;;;;5067523;28;20903;-76
2023/01/02 05:14:54;;;;;;;12.57;6.07;;;8.50;99.90;;;;;;5082502;28;20249;-76
2023/01/02 05:17:20;;;;;;;10.97;5.37;;;8.50;99.90;;;;;;5065970;28;20218;-76
2023/01/02 05:19:46;;;;;;;11.40;5.93;;;8.50;99.90;;;;;;5059804;28;20302;-76
2023/01/02 05:24:57;;;;;;;12.93;5.10;;;8.50;99.90;;;;;;5071335;28;20174;-76
2023/01/02 05:27:24;;;;;;;12.23;5.30;;;8.60;99.90;;;;;;5062826;28;20175;-76
2023/01/02 05:29:50;;;;;;;12.43;5.83;;;8.60;99.90;;;;;;5078757;28;20245;-76
2023/01/02 05:32:16;;;;;;;16.37;5.70;;;8.60;99.90;;;;;;5065809;28;20219;-76
2023/01/02 05:34:43;;;;;;;21.53;5.43;;;8.60;99.90;;;;;;5056194;28;20285;-76
2023/01/02 05:37:09;;;;;;;10.77;5.63;;;8.60;99.90;;;;;;5032895;28;20199;-76
2023/01/02 05:39:35;;;;;;;10.23;5.10;;;8.60;99.90;;;;;;5080743;28;20206;-76
2023/01/02 05:42:01;;;;;;;13.77;5.07;;;8.60;99.90;;;;;;5093064;28;20714;-76
2023/01/02 05:44:27;;;;;;;11.87;5.20;;;8.50;99.90;;;;;;5087159;28;20201;-76
2023/01/02 05:46:54;;;;;;;13.90;5.67;;;8.60;99.90;;;;;;5060444;28;20192;-76
2023/01/02 05:49:21;;;;;;;12.17;5.67;;;8.60;99.90;;;;;;5076649;28;20182;-76
2023/01/02 05:51:47;;;;;;;14.17;5.77;;;8.60;99.90;;;;;;5074510;28;20197;-76
2023/01/02 05:54:14;;;;;;;11.67;5.97;;;8.60;99.90;;;;;;5051874;28;20179;-76
2023/01/02 05:56:40;;;;;;;15.00;6.07;;;8.60;99.90;;;;;;5062836;28;20223;-76
2023/01/02 05:59:08;;;;;;;14.67;5.47;;;8.70;99.90;;;;;;5066007;28;20246;-76
2023/01/02 06:01:35;;;;;;;11.00;5.20;;;8.70;99.90;;;;;;5080379;28;20194;-76
2023/01/02 06:04:01;;;;;;;13.27;5.27;;;8.70;99.90;;;;;;5072128;28;20175;-76
2023/01/02 06:06:35;;;;;;;15.87;5.50;;;8.70;99.90;;;;;;5057172;28;20826;-76
2023/01/02 06:09:03;;;;;;;14.27;5.73;;;8.70;99.90;;;;;;5041362;28;20292;-76
2023/01/02 06:11:31;;;;;;;11.97;5.13;;;8.70;99.90;;;;;;5070373;28;20186;-76
2023/01/02 06:13:57;;;;;;;10.80;5.90;;;8.70;99.90;;;;;;5085535;28;20179;-76
2023/01/02 06:16:25;;;;;;;19.40;5.77;;;8.80;99.90;;;;;;5068408;28;20505;-76
2023/01/02 06:18:52;;;;;;;12.20;5.50;;;8.80;99.90;;;;;;5074304;28;20206;-76
2023/01/02 06:21:21;;;;;;;12.40;5.70;;;8.80;99.90;;;;;;5061889;28;20237;-76
2023/01/02 06:23:52;;;;;;;14.60;5.97;;;8.90;99.90;;;;;;5056865;28;20558;-76
2023/01/02 06:26:19;;;;;;;16.47;5.93;;;9.00;99.90;;;;;;5052522;28;20310;-76
2023/01/02 06:28:51;;;;;;;15.87;5.70;;;9.00;99.90;;;;;;5074448;28;20255;-76
2023/01/02 06:31:20;;;;;;;13.10;5.57;;;9.10;99.90;;;;;;5056197;28;20180;-76
2023/01/02 06:33:46;;;;;;;12.13;5.23;;;9.20;99.90;;;;;;5051868;28;20532;-76
2023/01/02 06:36:18;;;;;;;11.10;5.57;;;9.20;99.90;;;;;;5070268;28;20205;-76
2023/01/02 06:38:45;;;;;;;9.77;5.10;;;9.30;99.90;;;;;;5059159;28;20289;-76
2023/01/02 06:41:13;;;;;;;13.37;5.17;;;9.40;99.90;;;;;;5049753;28;20627;-76
2023/01/02 06:43:49;;;;;;;15.13;5.93;;;9.40;99.90;;;;;;5072823;28;20878;-77
2023/01/02 06:46:21;;;;;;;9.67;5.60;;;9.50;99.90;;;;;;5067027;28;20178;-76
2023/01/02 06:48:48;;;;;;;13.10;5.20;;;9.60;99.90;;;;;;5067058;28;20196;-76
2023/01/02 06:51:20;;;;;;;12.13;5.33;;;9.70;99.90;;;;;;5073472;28;20184;-76
2023/01/02 06:53:46;;;;;;;12.80;5.23;;;9.80;99.90;;;;;;5067818;28;20241;-76
2023/01/02 06:56:16;;;;;;;11.43;5.53;;;9.90;99.90;;;;;;5048319;28;20193;-76
2023/01/02 06:58:42;;;;;;;10.83;5.20;;;9.90;99.90;;;;;;5068865;28;20209;-76
2023/01/02 07:01:21;;;;;;;8.90;5.27;;;10.00;99.90;;;;;;5062246;28;22033;-76
2023/01/02 07:03:48;;;;;;;9.23;4.47;;;10.10;99.90;;;;;;5064122;28;20347;-76
2023/01/02 07:06:21;;;;;;;12.90;5.10;;;10.10;99.90;;;;;;5060863;28;20179;-76
2023/01/02 07:08:47;;;;;;;12.53;5.33;;;10.20;99.90;;;;;;5079279;28;20196;-76
2023/01/02 07:11:20;;;;;;;11.37;4.83;;;10.20;99.90;;;;;;5056123;28;20241;-76
2023/01/02 07:13:49;;;;;;;10.47;4.70;;;10.30;99.90;;;;;;5065366;28;20182;-76
2023/01/02 07:16:18;;;;;;;12.23;4.93;;;10.40;99.90;;;;;;5056984;28;20194;-76
2023/01/02 07:18:45;;;;;;;11.40;5.03;;;10.40;99.90;;;;;;5091825;28;20300;-76
2023/01/02 07:21:14;;;;;;;14.23;5.27;;;10.40;99.90;;;;;;5066231;28;20183;-76
2023/01/02 07:23:41;;;;;;;12.40;5.50;;;10.50;99.90;;;;;;5060430;28;20209;-77
2023/01/02 07:26:08;;;;;;;12.60;6.00;;;10.60;99.90;;;;;;5064159;28;20188;-77
2023/01/02 07:28:36;;;;;;;13.50;5.77;;;10.60;99.90;;;;;;5068124;28;20192;-77
2023/01/02 07:31:07;;;;;;;13.30;5.73;;;10.60;99.90;;;;;;5040631;28;20190;-77
2023/01/02 07:33:33;;;;;;;12.87;5.63;;;10.70;99.90;;;;;;5064962;28;20255;-76
2023/01/02 07:36:06;;;;;;;11.10;5.63;;;10.80;99.90;;;;;;5068598;28;20187;-77
2023/01/02 07:38:34;;;;;;;12.57;5.93;;;10.80;99.90;;;;;;5066860;28;20247;-76
2023/01/02 07:41:01;;;;;;;9.43;5.00;;;11.00;99.90;;;;;;5050090;28;20180;-76
2023/01/02 07:43:27;;;;;;;12.50;5.10;;;11.50;99.90;;;;;;5082928;28;20659;-77
2023/01/02 07:45:53;;;;;;;12.57;5.80;;;11.50;99.90;;;;;;5056128;28;20251;-76
2023/01/02 07:48:20;;;;;;;15.07;5.37;;;11.30;99.90;;;;;;5074529;28;20179;-76
2023/01/02 07:50:46;;;;;;;14.97;5.23;;;11.20;99.90;;;;;;5082770;28;20283;-76
2023/01/02 07:53:13;;;;;;;13.17;4.77;;;11.10;99.90;;;;;;5070094;28;20187;-77
2023/01/02 07:55:39;;;;;;;15.23;5.77;;;11.00;99.90;;;;;;5069853;28;20278;-76
2023/01/02 07:58:06;;;;;;;11.23;4.77;;;11.00;99.90;;;;;;5062484;28;20218;-76
2023/01/02 08:00:33;;;;;;;14.37;5.20;;;11.00;99.90;;;;;;5072879;28;20208;-76
2023/01/02 08:03:00;;;;;;;15.87;5.37;;;11.00;99.90;;;;;;5060384;28;20187;-76
2023/01/02 08:05:26;;;;;;;12.37;6.17;;;11.00;99.90;;;;;;5051449;28;20185;-77
2023/01/02 08:07:53;;;;;;;15.40;5.23;;;11.00;99.90;;;;;;5059577;28;20274;-76
2023/01/02 08:10:19;;;;;;;11.40;5.60;;;11.00;99.90;;;;;;5061213;28;20269;-77
2023/01/02 08:12:46;;;;;;;14.70;5.77;;;11.10;99.90;;;;;;5062912;28;20190;-76
2023/01/02 08:15:12;;;;;;;13.10;4.90;;;11.10;99.90;;;;;;5063165;28;20184;-76
2023/01/02 08:17:40;;;;;;;14.70;5.73;;;11.10;99.90;;;;;;5059941;28;20649;-76
2023/01/02 08:20:07;;;;;;;13.90;5.23;;;11.10;99.90;;;;;;5066559;28;20230;-76
2023/01/02 08:22:34;;;;;;;8.20;4.33;;;11.10;99.90;;;;;;5044989;28;20567;-76
2023/01/02 08:25:00;;;;;;;19.20;5.30;;;11.20;99.90;;;;;;5094448;28;20369;-76
2023/01/02 08:27:27;;;;;;;14.57;5.10;;;11.20;99.90;;;;;;5063686;28;20179;-76
2023/01/02 08:29:53;;;;;;;21.93;5.10;;;11.30;99.90;;;;;;5063234;28;20281;-77
2023/01/02 08:32:19;;;;;;;8.90;4.70;;;11.30;99.90;;;;;;5061534;28;20738;-76
2023/01/02 08:34:46;;;;;;;14.37;4.80;;;11.40;99.90;;;;;;5056645;28;20689;-76
2023/01/02 08:37:12;;;;;;;16.17;5.53;;;11.40;99.90;;;;;;5069928;28;20182;-76
2023/01/02 08:39:39;;;;;;;9.57;4.90;;;11.40;99.90;;;;;;5047147;28;20218;-76
2023/01/02 08:42:05;;;;;;;11.13;4.87;;;11.50;99.90;;;;;;5066867;28;20187;-76
2023/01/02 08:44:36;;;;;;;11.33;5.33;;;11.50;99.90;;;;;;5053951;28;20178;-77
2023/01/02 08:47:06;;;;;;;11.80;5.03;;;11.60;99.90;;;;;;5067833;28;20432;-76
2023/01/02 08:49:32;;;;;;;16.27;5.00;;;11.60;99.90;;;;;;5066974;28;20189;-77
2023/01/02 08:51:59;;;;;;;12.03;4.83;;;11.70;99.90;;;;;;5065385;28;20682;-76
2023/01/02 08:54:25;;;;;;;14.27;5.10;;;11.80;99.90;;;;;;5061355;28;20647;-77
2023/01/02 08:56:51;;;;;;;14.17;4.77;;;11.80;99.90;;;;;;5060444;28;20806;-76
2023/01/02 08:59:18;;;;;;;10.37;4.70;;;11.80;99.90;;;;;;5096699;28;20251;-76
2023/01/02 09:01:44;;;;;;;15.37;4.40;;;11.80;99.90;;;;;;5065571;28;20221;-76
2023/01/02 09:04:10;;;;;;;10.27;4.70;;;11.80;99.90;;;;;;5072846;28;20194;-76
2023/01/02 09:06:37;;;;;;;12.80;4.77;;;11.90;99.90;;;;;;5086412;28;20187;-77
2023/01/02 09:09:05;;;;;;;11.77;4.00;;;11.90;99.90;;;;;;5064821;28;20225;-76
2023/01/02 09:11:36;;;;;;;11.67;4.93;;;12.00;99.90;;;;;;5053697;28;20191;-77
2023/01/02 09:14:04;;;;;;;12.63;4.77;;;12.00;99.90;;;;;;5063682;28;20195;-76
2023/01/02 09:16:31;;;;;;;10.67;4.13;;;12.00;99.90;;;;;;5064004;28;20187;-77
2023/01/02 09:19:00;;;;;;;9.27;4.40;;;12.10;99.90;;;;;;5068394;28;20221;-77
2023/01/02 09:21:27;;;;;;;8.97;4.20;;;12.10;99.90;;;;;;5082100;28;20171;-77
2023/01/02 09:23:54;;;;;;;10.33;4.40;;;12.10;99.90;;;;;;5052223;28;20199;-76
2023/01/02 09:26:20;;;;;;;16.67;4.57;;;12.20;99.90;;;;;;5062370;28;20189;-77
2023/01/02 09:28:47;;;;;;;13.17;3.90;;;12.30;99.90;;;;;;5077544;28;20189;-77
2023/01/02 09:31:16;;;;;;;14.17;4.77;;;12.30;99.90;;;;;;5058316;28;20675;-77
2023/01/02 09:33:45;;;;;;;13.07;4.13;;;12.40;99.90;;;;;;5062803;28;20214;-77
2023/01/02 09:36:17;;;;;;;11.97;3.60;;;12.60;99.90;;;;;;5065134;28;20213;-77
2023/01/02 09:38:50;;;;;;;5.40;2.57;;;12.80;99.90;;;;;;5068092;28;20217;-77
2023/01/02 09:41:33;;;;;;;4.33;2.23;;;13.00;99.90;;;;;;5071969;28;20179;-77
2023/01/02 09:44:38;;;;;;;6.50;2.27;;;13.10;99.90;;;;;;5077963;28;22067;-77
2023/01/02 09:47:10;;;;;;;3.00;1.97;;;13.30;99.90;;;;;;5060993;28;20179;-76
2023/01/02 09:49:51;;;;;;;6.43;2.00;;;13.60;99.90;;;;;;5064557;28;20251;-77
2023/01/02 09:52:24;;;;;;;6.13;2.40;;;13.80;99.90;;;;;;5069886;28;20190;-78
2023/01/02 09:54:51;;;;;;;4.17;2.37;;;14.00;99.90;;;;;;5070388;28;20251;-77
2023/01/02 09:57:26;;;;;;;7.47;2.60;;;14.00;99.90;;;;;;5065881;28;20286;-77
2023/01/02 10:00:25;;;;;;;6.83;2.43;;;14.10;99.90;;;;;;5060875;28;20225;-77
2023/01/02 10:03:00;;;;;;;7.63;2.30;;;14.20;99.90;;;;;;5064450;28;20191;-77
2023/01/02 10:05:53;;;;;;;8.80;4.10;;;14.30;99.90;;;;;;5082470;28;20190;-77
2023/01/02 10:08:46;;;;;;;11.57;3.97;;;14.40;99.90;;;;;;5070904;28;20601;-77
2023/01/02 10:11:35;;;;;;;17.27;4.00;;;14.30;99.90;;;;;;5062904;28;20306;-77
2023/01/02 10:14:32;;;;;;;9.63;4.47;;;14.20;99.90;;;;;;5067168;28;20191;-77
2023/01/02 10:17:00;;;;;;;11.00;3.40;;;14.20;99.90;;;;;;5064489;28;20912;-77
2023/01/02 10:20:15;;;;;;;13.93;3.73;;;14.20;99.90;;;;;;5065765;28;20223;-77
2023/01/02 10:22:52;;;;;;;8.83;3.50;;;14.30;99.90;;;;;;5066832;28;20195;-77
2023/01/02 10:25:29;;;;;;;11.23;3.70;;;14.20;99.90;;;;;;5062931;28;20186;-77
2023/01/02 10:28:10;;;;;;;9.80;3.30;;;14.40;99.90;;;;;;5073228;28;20213;-77
2023/01/02 10:30:47;;;;;;;15.63;3.63;;;14.50;99.90;;;;;;5059527;28;20206;-77
2023/01/02 10:33:37;;;;;;;10.30;3.30;;;14.50;99.90;;;;;;5062420;28;20183;-77
2023/01/02 10:36:03;;;;;;;7.60;3.70;;;14.60;99.90;;;;;;5066273;28;20686;-77
2023/01/02 10:38:38;;;;;;;13.50;3.67;;;14.70;99.90;;;;;;5048580;28;20190;-77
2023/01/02 10:41:05;;;;;;;9.57;3.57;;;14.80;99.90;;;;;;5058883;28;20647;-78
2023/01/02 10:43:33;;;;;;;7.73;3.73;;;14.80;99.90;;;;;;5066735;28;20904;-77
2023/01/02 10:46:03;;;;;;;11.37;3.47;;;14.90;99.90;;;;;;5059185;28;20184;-78
2023/01/02 10:48:35;;;;;;;7.97;2.73;;;15.00;99.90;;;;;;5070083;28;20305;-77
2023/01/02 10:51:10;;;;;;;10.00;2.90;;;15.00;99.90;;;;;;5065586;28;20184;-77
2023/01/02 10:53:37;;;;;;;12.17;3.03;;;15.10;99.90;;;;;;5047864;28;20212;-77
2023/01/02 10:56:17;;;;;;;11.37;3.20;;;15.30;99.90;;;;;;5067115;28;20671;-78
2023/01/02 10:58:48;;;;;;;9.67;3.30;;;15.40;99.90;;;;;;5054749;28;20222;-78
2023/01/02 11:01:21;;;;;;;7.50;3.20;;;15.60;99.90;;;;;;5062223;28;20657;-78
2023/01/02 11:03:59;;;;;;;7.10;2.90;;;15.70;99.90;;;;;;5064393;28;20332;-78
2023/01/02 11:06:30;;;;;;;10.07;3.00;;;15.60;99.90;;;;;;5071353;28;21297;-78
2023/01/02 11:09:12;;;;;;;5.03;2.90;;;15.70;99.90;;;;;;5069887;28;20213;-78
2023/01/02 11:11:56;;;;;;;8.73;2.93;;;15.70;99.90;;;;;;5038721;28;20179;-78
2023/01/02 11:14:34;;;;;;;7.40;2.97;;;16.00;99.90;;;;;;5067166;28;20535;-78
2023/01/02 11:17:15;;;;;;;8.10;3.23;;;16.10;99.90;;;;;;5047143;28;20201;-78
2023/01/02 11:19:53;;;;;;;8.63;2.37;;;16.20;99.90;;;;;;5045608;28;20314;-79
2023/01/02 11:22:32;;;;;;;6.57;3.10;;;16.30;99.90;;;;;;5071795;28;20201;-79
2023/01/02 11:25:12;;;;;;;6.53;3.42;;;16.20;99.90;;;;;;5063082;28;20191;-78
2023/01/02 11:27:43;;;;;;;7.17;3.17;;;16.20;99.90;;;;;;5058946;28;20186;-78
2023/01/02 11:30:51;;;;;;;8.77;3.67;;;16.20;99.90;;;;;;5065855;28;20592;-79
2023/01/02 11:33:24;;;;;;;7.00;3.60;;;16.30;99.90;;;;;;5067763;28;20187;-78
2023/01/02 11:36:05;;;;;;;10.73;3.40;;;16.20;99.90;;;;;;5041673;28;20226;-78
2023/01/02 11:38:55;;;;;;;10.33;3.70;;;16.20;99.90;;;;;;5060796;28;20186;-78
2023/01/02 11:45:12;;;;;;;11.07;3.93;;;16.10;99.90;;;;;;5060586;28;20202;-78
2023/01/02 11:47:47;;;;;;;11.50;4.30;;;16.10;99.90;;;;;;5074758;28;20193;-78
2023/01/02 11:50:29;;;;;;;14.77;4.50;;;16.10;99.90;;;;;;5066153;28;20251;-78
2023/01/02 11:53:10;;;;;;;14.53;4.90;;;16.00;99.90;;;;;;5050614;28;20559;-78
2023/01/02 11:55:53;;;;;;;14.83;4.90;;;16.00;99.90;;;;;;5062216;28;20190;-79
2023/01/02 11:58:49;;;;;;;8.53;4.10;;;16.10;99.90;;;;;;5060211;28;20193;-78
2023/01/02 12:01:59;;;;;;;14.77;4.27;;;16.00;99.90;;;;;;5063947;28;20189;-78
2023/01/02 12:04:26;;;;;;;11.30;4.20;;;16.10;99.90;;;;;;5048728;28;20301;-78
2023/01/02 12:07:49;;;;;;;10.40;4.10;;;16.10;99.90;;;;;;5038252;28;20176;-78
2023/01/02 12:10:53;;;;;;;16.23;4.67;;;16.00;99.90;;;;;;4998044;28;20268;-78
2023/01/02 12:14:06;;;;;;;14.23;4.27;;;16.10;99.90;;;;;;4989540;28;20181;-78
2023/01/02 12:16:44;;;;;;;11.37;3.93;;;16.20;99.90;;;;;;5051919;28;20199;-78
2023/01/02 12:19:39;;;;;;;9.53;3.73;;;16.20;99.90;;;;;;5049973;28;20276;-77
2023/01/02 12:22:28;;;;;;;11.33;4.13;;;16.20;99.90;;;;;;5071492;28;20185;-78
2023/01/02 12:25:36;;;;;;;9.17;3.77;;;16.20;99.90;;;;;;5074578;28;20183;-78
2023/01/02 12:28:31;;;;;;;10.63;4.20;;;16.10;99.90;;;;;;5062225;28;20240;-78
2023/01/02 12:31:25;;;;;;;19.00;4.83;;;16.10;99.90;;;;;;5049509;28;20462;-78
2023/01/02 12:34:14;;;;;;;11.70;4.00;;;16.10;99.90;;;;;;5068646;28;20186;-78
2023/01/02 12:37:14;;;;;;;16.37;4.47;;;16.00;99.90;;;;;;5072304;28;20183;-78
2023/01/02 12:40:14;;;;;;;12.13;3.87;;;16.00;99.90;;;;;;5093125;28;20237;-78
2023/01/02 12:43:17;;;;;;;12.53;3.97;;;16.00;99.90;;;;;;5056412;28;20647;-78
2023/01/02 12:46:38;;;;;;;12.63;4.30;;;15.90;99.90;;;;;;5056687;28;20182;-78
2023/01/02 12:49:19;;;;;;;14.07;4.10;;;16.00;99.90;;;;;;5062061;28;20270;-78
2023/01/02 12:52:21;;;;;;;11.30;3.83;;;15.90;99.90;;;;;;5063108;28;20191;-78
2023/01/02 12:55:26;;;;;;;16.73;4.33;;;15.90;99.90;;;;;;5055114;28;20749;-77
2023/01/02 12:58:02;;;;;;;11.13;4.50;;;15.90;99.90;;;;;;5065099;28;20193;-78
2023/01/02 13:01:09;;;;;;;15.37;4.27;;;15.90;99.90;;;;;;5054397;28;20224;-77
2023/01/02 13:03:35;;;;;;;14.40;4.77;;;15.80;99.90;;;;;;5070498;28;20186;-77
2023/01/02 13:06:19;;;;;;;19.10;4.70;;;15.70;99.90;;;;;;5076489;28;20193;-77
2023/01/02 13:08:59;;;;;;;16.73;4.70;;;15.70;99.90;;;;;;5064440;28;20241;-77
2023/01/02 13:12:13;;;;;;;13.70;5.40;;;15.70;99.90;;;;;;5086644;28;20179;-77
2023/01/02 13:15:20;;;;;;;17.93;5.23;;;15.70;99.90;;;;;;5052319;28;20190;-78
2023/01/02 13:17:56;;;;;;;19.50;5.57;;;15.60;99.90;;;;;;5068674;28;20186;-78
2023/01/02 13:20:47;;;;;;;14.50;5.23;;;15.60;99.90;;;;;;5095935;28;20364;-77
2023/01/02 13:23:45;;;;;;;15.37;5.83;;;15.50;99.90;;;;;;5069540;28;20210;-77
2023/01/02 13:26:32;;;;;;;17.60;5.23;;;15.50;99.90;;;;;;5046434;28;20178;-77
2023/01/02 13:29:17;;;;;;;13.63;4.77;;;15.50;99.90;;;;;;5068835;28;20204;-77
2023/01/02 13:31:55;;;;;;;33.83;5.90;;;15.50;99.90;;;;;;5062641;28;20195;-79